ADDS METAR Data INFO
IDs: Format: Raw Decoded Include TAF

Data at: 0402 UTC 23 Sep 2017

KSJT 230351Z AUTO 14010G17KT 10SM CLR 28/17 A2989 RMK AO2 SLP094 T02830167
KSJT 230251Z AUTO 14011G17KT 10SM CLR 29/17 A2988 RMK AO2 SLP090 T02940167 53013
KSJT 230151Z AUTO 13010KT 10SM FEW095 FEW110 30/16 A2986 RMK AO2 SLP084 T03000161
KSJT 230051Z 14010KT 10SM CLR 31/16 A2984 RMK AO2 SLP079 T03110156
KSJT 222351Z 13016G24KT 10SM FEW075 33/16 A2984 RMK AO2 SLP076 T03280156 10356 20306 56010
KSJT 222251Z 13013KT 10SM CLR 34/14 A2984 RMK AO2 SLP076 T03440144
KSJT 222151Z 17015G21KT 10SM CLR 35/15 A2985 RMK AO2 SLP078 T03500150
KSJT 222051Z 17008G20KT 140V200 10SM FEW070 SCT085 35/16 A2987 RMK AO2 SLP086 T03500156 58022
KSJT 221951Z 20014G20KT 10SM FEW060 SCT070 34/17 A2990 RMK AO2 SLP094 T03440167
KSJT 221851Z 16013G18KT 130V210 10SM SCT050 32/17 A2992 RMK AO2 SLP102 T03220167
KSJT 221751Z 19013KT 10SM SCT044 31/18 A2994 RMK AO2 SLP111 T03060178 10322 20239 58004
KSJT 221651Z 19015G22KT 10SM CLR 30/18 A2995 RMK AO2 SLP115 T03000178
KSJT 221551Z 16011KT 10SM CLR 29/18 A2995 RMK AO2 SLP116 T02890183
KSJT 221451Z 18014G20KT 10SM FEW025 27/19 A2995 RMK AO2 SLP115 T02720189 51008
KSJT 221426Z 19011G24KT 10SM SCT024 27/19 A2995 RMK AO2 T02670189
KSJT 221351Z 16010G16KT 10SM OVC026 26/19 A2994 RMK AO2 SLP113 T02560194
KSJT 221318Z 17007KT 10SM BKN025 24/19 A2994 RMK AO2 T02440194
KSJT 221251Z 16007KT 10SM FEW022 24/19 A2994 RMK AO2 SLP110 T02390194
KSJT 221151Z AUTO 17006KT 10SM CLR 24/19 A2992 RMK AO2 SLP105 T02390194 10267 20239 53002
KSJT 221051Z AUTO 16008G16KT 10SM CLR 24/19 A2991 RMK AO2 SLP101 T02440194
KSJT 220951Z AUTO 16008G17KT 10SM FEW021 24/19 A2991 RMK AO2 SLP101 T02390189
KSJT 220933Z AUTO 16010KT 10SM BKN021 24/19 A2992 RMK AO2 T02390189
KSJT 220851Z AUTO 15008KT 10SM CLR 24/18 A2992 RMK AO2 SLP103 T02390183 52003
KSJT 220751Z AUTO 15008KT 10SM CLR 25/17 A2992 RMK AO2 SLP102 T02500172
KSJT 220651Z AUTO 16009KT 10SM CLR 26/17 A2991 RMK AO2 SLP099 T02610172
KSJT 220551Z AUTO 16005KT 10SM CLR 26/17 A2991 RMK AO2 SLP099 T02610167 10344 20256 403720244 51005
KSJT 220451Z AUTO 15005KT 10SM CLR 26/16 A2991 RMK AO2 SLP099 T02610156 TSNO
KSJT 220351Z AUTO 14006KT 10SM CLR 27/16 A2990 RMK AO2 SLP099 T02720156
KSJT 220251Z AUTO 13010KT 10SM CLR 29/16 A2989 RMK AO2 SLP096 T02890156 53019
KSJT 220151Z AUTO 13007KT 10SM CLR 31/16 A2988 RMK AO2 SLP089 T03060156
KSJT 220051Z 14008KT 10SM CLR 32/14 A2984 RMK AO2 SLP078 T03220144
KSJT 212351Z 14014G19KT 10SM CLR 34/15 A2983 RMK AO2 SLP073 T03440150 10372 20344 55005
KSJT 212251Z 17010KT 10SM FEW085 36/14 A2983 RMK AO2 SLP070 T03560144
KSJT 212151Z 13010KT 10SM SCT085 SCT110 37/14 A2983 RMK AO2 SLP071 T03670144
KSJT 212051Z 16008G19KT 130V200 10SM SCT080 SCT095 37/16 A2985 RMK AO2 SLP077 T03720156 58026
KSJT 211951Z 19009G17KT 10SM CLR 36/16 A2988 RMK AO2 SLP089 T03610156
KSJT 211851Z 19013G18KT 10SM CLR 36/17 A2991 RMK AO2 SLP098 T03560172
KSJT 211751Z 18009G17KT 10SM CLR 34/18 A2993 RMK AO2 SLP107 T03440178 10344 20244 58006
KSJT 211651Z 16013G20KT 10SM CLR 33/18 A2995 RMK AO2 SLP113 T03280183